createdAt,value
2019-04-06T00:03:53.647Z,22.30
2019-04-06T00:07:58.557Z,24.43
2019-04-06T00:12:03.467Z,22.83
2019-04-06T00:16:09.975Z,19.93
2019-04-06T00:20:14.889Z,20.63
2019-04-06T00:24:19.869Z,23.70
2019-04-06T00:28:24.795Z,22.67
2019-04-06T00:32:37.848Z,21.30
2019-04-06T00:36:42.763Z,22.33
2019-04-06T00:40:47.676Z,23.83
2019-04-06T00:44:52.814Z,23.70
2019-04-06T00:48:57.718Z,24.60
2019-04-06T00:53:02.654Z,24.33
2019-04-06T00:57:07.574Z,22.87
2019-04-06T01:01:12.491Z,21.97
2019-04-06T01:05:17.474Z,23.13
2019-04-06T01:09:22.436Z,24.00
2019-04-06T01:13:27.407Z,22.03
2019-04-06T01:17:32.272Z,22.93
2019-04-06T01:21:37.188Z,23.00
2019-04-06T01:25:43.173Z,22.50
2019-04-06T01:29:48.105Z,24.97
2019-04-06T01:33:53.030Z,26.77
2019-04-06T01:37:57.966Z,25.97
2019-04-06T01:42:02.922Z,24.27
2019-04-06T01:46:07.783Z,23.67
2019-04-06T01:50:12.787Z,24.27
2019-04-06T01:54:18.669Z,23.10
2019-04-06T01:58:23.610Z,24.10
2019-04-06T02:02:30.168Z,25.43
2019-04-06T02:06:35.090Z,24.50
2019-04-06T02:10:40.007Z,25.07
2019-04-06T02:14:44.964Z,27.30
2019-04-06T02:18:49.917Z,26.30
2019-04-06T02:22:54.834Z,24.83
2019-04-06T02:26:59.925Z,26.77
2019-04-06T02:31:09.486Z,27.43
2019-04-06T02:35:18.527Z,27.93
2019-04-06T02:39:34.027Z,25.13
2019-04-06T02:43:40.216Z,23.40
2019-04-06T02:47:45.126Z,22.03
2019-04-06T02:51:50.040Z,21.47
2019-04-06T02:55:54.945Z,21.93
2019-04-06T02:59:59.983Z,23.07
2019-04-06T03:04:04.919Z,23.03
2019-04-06T03:08:09.839Z,23.53
2019-04-06T03:12:14.759Z,25.00
2019-04-06T03:16:19.684Z,25.57
2019-04-06T03:20:24.593Z,25.37
2019-04-06T03:24:29.515Z,31.30
2019-04-06T03:28:34.432Z,33.10
2019-04-06T03:32:39.520Z,25.37
2019-04-06T03:36:44.456Z,24.13
2019-04-06T03:40:49.386Z,23.20
2019-04-06T03:44:54.301Z,22.23
2019-04-06T03:48:59.216Z,20.83
2019-04-06T03:53:04.138Z,22.57
2019-04-06T03:57:15.993Z,20.40
2019-04-06T04:01:15.678Z,20.10
2019-04-06T04:05:20.581Z,21.10
2019-04-06T04:09:25.563Z,22.10
2019-04-06T04:13:30.503Z,19.73
2019-04-06T04:17:35.552Z,20.43
2019-04-06T04:21:40.542Z,21.63
2019-04-06T04:25:45.669Z,23.17
2019-04-06T04:29:50.547Z,21.63
2019-04-06T04:33:55.467Z,20.73
2019-04-06T04:38:00.407Z,20.97
2019-04-06T04:42:05.327Z,22.27
2019-04-06T04:46:10.213Z,23.13
2019-04-06T04:50:15.136Z,22.53
2019-04-06T04:54:20.047Z,21.93
2019-04-06T04:58:24.958Z,22.50
2019-04-06T05:02:29.877Z,34.23
2019-04-06T05:06:34.816Z,30.17
2019-04-06T05:10:39.755Z,29.23
2019-04-06T05:14:59.758Z,45.90
2019-04-06T05:19:04.676Z,45.17
2019-04-06T05:23:09.609Z,40.47
2019-04-06T05:27:14.532Z,26.53
2019-04-06T05:31:19.458Z,32.50
2019-04-06T05:35:24.385Z,25.27
2019-04-06T05:39:29.311Z,28.80
2019-04-06T05:43:34.235Z,26.53
2019-04-06T05:47:39.145Z,31.83
2019-04-06T05:51:44.071Z,22.13
2019-04-06T05:55:49.055Z,27.47
2019-04-06T05:59:53.967Z,29.40
2019-04-06T06:03:58.891Z,21.13
2019-04-06T06:08:03.797Z,16.70
2019-04-06T06:12:11.479Z,23.83
2019-04-06T06:16:16.355Z,15.13
2019-04-06T06:20:21.491Z,14.27
2019-04-06T06:24:26.369Z,12.50
2019-04-06T06:28:31.273Z,13.37
2019-04-06T06:32:36.193Z,12.53
2019-04-06T06:36:41.080Z,16.13
2019-04-06T06:40:46.050Z,17.23
2019-04-06T06:44:51.056Z,15.50
2019-04-06T06:48:55.954Z,16.83
2019-04-06T06:53:00.910Z,16.80
2019-04-06T06:57:05.849Z,15.43
2019-04-06T07:01:10.778Z,17.40
2019-04-06T07:05:15.715Z,17.13
2019-04-06T07:09:20.873Z,18.37
2019-04-06T07:13:25.751Z,17.80
2019-04-06T07:17:30.884Z,19.77
2019-04-06T07:21:35.994Z,21.33
2019-04-06T07:25:41.128Z,21.77
2019-04-06T07:29:46.022Z,20.63
2019-04-06T07:33:51.143Z,20.80
2019-04-06T07:37:56.072Z,21.90
2019-04-06T07:42:01.025Z,21.03
2019-04-06T07:46:06.166Z,21.27
2019-04-06T07:50:11.312Z,20.17
2019-04-06T07:54:16.240Z,33.87
2019-04-06T07:58:21.243Z,20.27
2019-04-06T08:02:26.260Z,19.23
2019-04-06T08:06:31.176Z,19.90
2019-04-06T08:10:36.103Z,20.03
2019-04-06T08:14:41.027Z,19.93
2019-04-06T08:18:46.032Z,19.97
2019-04-06T08:22:50.956Z,19.70
2019-04-06T08:26:55.891Z,20.07
2019-04-06T08:31:01.029Z,19.77
2019-04-06T08:35:07.813Z,18.13
2019-04-06T08:39:12.767Z,18.40
2019-04-06T08:43:17.735Z,19.00
2019-04-06T08:47:22.699Z,18.70
2019-04-06T08:51:27.670Z,20.47
2019-04-06T08:55:32.695Z,20.10
2019-04-06T08:59:37.620Z,20.43
2019-04-06T09:03:42.568Z,19.07
2019-04-06T09:07:48.483Z,20.47
2019-04-06T09:11:53.472Z,21.67
2019-04-06T09:15:58.653Z,21.37
2019-04-06T09:20:05.225Z,20.53
2019-04-06T09:24:10.117Z,19.10
2019-04-06T09:28:15.096Z,20.87
2019-04-06T09:32:24.580Z,21.43
2019-04-06T09:36:29.529Z,21.50
2019-04-06T09:40:43.515Z,21.40
2019-04-06T09:44:53.136Z,22.77
2019-04-06T09:49:08.682Z,21.63
2019-04-06T09:53:15.319Z,22.63
2019-04-06T09:57:40.054Z,21.80
2019-04-06T10:01:55.149Z,21.50
2019-04-06T10:06:14.629Z,23.07
2019-04-06T10:10:24.679Z,23.50
2019-04-06T10:14:39.832Z,23.30
2019-04-06T10:19:04.041Z,23.30
2019-04-06T10:23:28.646Z,23.90
2019-04-06T10:27:36.402Z,24.30
2019-04-06T10:32:03.585Z,24.10
2019-04-06T10:36:19.168Z,24.37
2019-04-06T10:40:28.770Z,24.70
2019-04-06T10:44:46.651Z,24.03
2019-04-06T10:48:54.857Z,24.13
2019-04-06T10:53:08.168Z,24.03
2019-04-06T10:57:23.793Z,23.63
2019-04-06T11:01:39.882Z,24.43
2019-04-06T11:05:51.015Z,23.60
2019-04-06T11:10:22.134Z,23.07
2019-04-06T11:14:49.188Z,23.33
2019-04-06T11:19:13.848Z,23.93
2019-04-06T11:23:40.795Z,23.07
2019-04-06T11:27:53.545Z,23.47
2019-04-06T11:32:17.069Z,24.70
2019-04-06T11:36:26.566Z,24.07
2019-04-06T11:40:39.295Z,23.50
2019-04-06T11:44:57.882Z,24.10
2019-04-06T11:49:04.469Z,20.97
2019-04-06T11:53:10.981Z,19.70
2019-04-06T11:57:23.873Z,20.40
2019-04-06T12:01:47.049Z,18.17
2019-04-06T12:05:53.608Z,19.17
2019-04-06T12:10:02.998Z,19.03
2019-04-06T12:14:19.887Z,20.70
2019-04-06T12:18:31.895Z,17.23
2019-04-06T12:22:38.455Z,17.73
2019-04-06T12:26:47.712Z,17.97
2019-04-06T12:30:54.270Z,18.93
2019-04-06T12:35:03.409Z,19.87
2019-04-06T12:39:09.968Z,18.47
2019-04-06T12:43:35.312Z,19.00
2019-04-06T12:47:48.316Z,19.93
2019-04-06T12:52:08.254Z,18.60
2019-04-06T12:56:16.433Z,19.27
2019-04-06T13:00:35.342Z,20.27
2019-04-06T13:05:01.730Z,18.40
2019-04-06T13:09:26.286Z,18.60
2019-04-06T13:13:46.512Z,18.07
2019-04-06T13:18:10.051Z,19.60
2019-04-06T13:22:21.418Z,18.50
2019-04-06T13:26:32.791Z,17.53
2019-04-06T13:35:16.089Z,18.30
2019-04-06T13:39:24.577Z,16.50
2019-04-06T13:43:46.600Z,14.15
2019-04-06T13:48:02.440Z,13.20
2019-04-06T13:52:15.459Z,14.17
2019-04-06T13:56:25.403Z,13.97
2019-04-06T14:00:37.946Z,14.13
2019-04-06T14:04:49.177Z,14.37
2019-04-06T14:09:13.185Z,13.80
2019-04-06T14:13:42.299Z,14.77
2019-04-06T14:17:53.393Z,14.20
2019-04-06T14:22:13.225Z,12.90
2019-04-06T14:26:35.802Z,13.80
2019-04-06T14:30:58.743Z,13.23
2019-04-06T14:35:13.571Z,12.87
2019-04-06T14:39:20.089Z,13.30
2019-04-06T14:43:36.898Z,11.93
2019-04-06T14:48:02.681Z,13.47
2019-04-06T14:52:13.401Z,12.60
2019-04-06T14:56:48.679Z,12.33
2019-04-06T15:01:10.462Z,12.13
2019-04-06T15:05:28.613Z,13.03
2019-04-06T15:09:35.429Z,12.37
2019-04-06T15:13:45.135Z,13.00
2019-04-06T15:17:54.125Z,12.50
2019-04-06T15:22:16.530Z,12.27
2019-04-06T15:26:35.254Z,12.03
2019-04-06T15:35:29.292Z,11.63
2019-04-06T15:39:38.798Z,11.57
2019-04-06T15:43:48.315Z,11.90
2019-04-06T15:47:54.919Z,12.05
2019-04-06T15:52:10.167Z,12.00
2019-04-06T15:56:12.479Z,11.38
2019-04-06T16:00:28.455Z,11.43
2019-04-06T16:04:37.902Z,10.80
2019-04-06T16:08:59.589Z,10.43
2019-04-06T16:13:12.199Z,10.03
2019-04-06T16:17:19.685Z,10.53
2019-04-06T16:21:35.216Z,10.73
2019-04-06T16:25:51.025Z,9.40
2019-04-06T16:30:14.217Z,10.43
2019-04-06T16:34:32.762Z,9.90
2019-04-06T16:38:48.214Z,9.30
2019-04-06T16:43:13.246Z,10.00
2019-04-06T16:47:35.063Z,9.10
2019-04-06T16:51:44.550Z,10.93
2019-04-06T16:56:07.628Z,10.97
2019-04-06T17:00:23.872Z,13.60
2019-04-06T17:04:39.486Z,10.87
2019-04-06T17:09:02.431Z,9.13
2019-04-06T17:13:26.138Z,10.37
2019-04-06T17:17:41.864Z,8.37
2019-04-06T17:21:54.347Z,9.33
2019-04-06T17:26:03.891Z,8.83
2019-04-06T17:30:11.092Z,10.23
2019-04-06T17:34:17.716Z,9.60
2019-04-06T17:38:30.213Z,9.30
2019-04-06T17:42:51.593Z,10.00
2019-04-06T17:46:58.264Z,10.17
2019-04-06T17:51:16.803Z,9.50
2019-04-06T17:55:23.426Z,10.37
2019-04-06T17:59:30.134Z,11.97
2019-04-06T18:03:36.679Z,10.97
2019-04-06T18:08:01.502Z,11.13
2019-04-06T18:12:24.590Z,10.30
2019-04-06T18:16:31.272Z,10.30
2019-04-06T18:20:36.137Z,10.23
2019-04-06T18:24:41.094Z,11.17
2019-04-06T18:28:46.173Z,10.30
2019-04-06T18:33:03.650Z,10.53
2019-04-06T18:37:13.607Z,10.53
2019-04-06T18:41:18.554Z,9.77
2019-04-06T18:45:23.541Z,10.77
2019-04-06T18:49:28.487Z,11.00
2019-04-06T18:53:33.433Z,13.53
2019-04-06T18:57:38.435Z,12.97
2019-04-06T19:01:44.843Z,12.17
2019-04-06T19:05:50.595Z,10.83
2019-04-06T19:09:55.852Z,11.60
2019-04-06T19:14:01.197Z,11.37
2019-04-06T19:18:06.264Z,11.07
2019-04-06T19:22:12.346Z,11.13
2019-04-06T19:26:17.290Z,10.40
2019-04-06T19:30:22.548Z,10.67
2019-04-06T19:34:27.472Z,10.70
2019-04-06T19:38:32.554Z,10.60
2019-04-06T19:42:37.465Z,10.83
2019-04-06T19:46:42.373Z,10.77
2019-04-06T19:50:47.525Z,10.60
2019-04-06T19:54:52.481Z,11.60
2019-04-06T19:58:57.396Z,11.30
2019-04-06T20:03:02.335Z,11.20
2019-04-06T20:07:07.281Z,11.47
2019-04-06T20:11:12.287Z,11.63
2019-04-06T20:15:17.568Z,11.33
2019-04-06T20:19:23.034Z,11.47
2019-04-06T20:23:27.974Z,12.87
2019-04-06T20:27:32.895Z,16.93
2019-04-06T20:31:37.813Z,17.07
2019-04-06T20:35:42.733Z,16.87
2019-04-06T20:39:47.652Z,14.53
2019-04-06T20:43:52.811Z,13.27
2019-04-06T20:47:57.677Z,13.90
2019-04-06T20:52:02.831Z,15.50
2019-04-06T20:56:07.751Z,14.47
2019-04-06T21:00:13.115Z,14.30
2019-04-06T21:04:19.379Z,15.17
2019-04-06T21:08:24.339Z,15.70
2019-04-06T21:12:29.268Z,15.87
2019-04-06T21:16:34.321Z,14.93
2019-04-06T21:20:39.303Z,16.03
2019-04-06T21:24:44.277Z,12.20
2019-04-06T21:28:49.678Z,11.90
2019-04-06T21:32:55.169Z,11.70
2019-04-06T21:37:00.065Z,14.87
2019-04-06T21:41:05.116Z,13.73
2019-04-06T21:45:10.624Z,14.33
2019-04-06T21:49:15.507Z,15.07
2019-04-06T21:53:20.463Z,14.97
2019-04-06T21:57:25.385Z,15.27
2019-04-06T22:01:31.020Z,15.93
2019-04-06T22:05:36.292Z,13.80
2019-04-06T22:09:41.343Z,14.27
2019-04-06T22:13:46.263Z,14.97
2019-04-06T22:17:51.214Z,13.80
2019-04-06T22:21:56.149Z,13.60
2019-04-06T22:26:01.546Z,15.27
2019-04-06T22:30:09.774Z,15.57
2019-04-06T22:34:14.819Z,14.27
2019-04-06T22:38:20.347Z,13.70
2019-04-06T22:42:25.336Z,13.27
2019-04-06T22:46:30.270Z,13.97
2019-04-06T22:50:35.200Z,13.73
2019-04-06T22:54:40.131Z,14.07
2019-04-06T22:58:45.053Z,13.80
2019-04-06T23:03:08.169Z,14.90
2019-04-06T23:07:14.665Z,15.87
2019-04-06T23:11:20.741Z,14.53
2019-04-06T23:15:26.138Z,16.30
2019-04-06T23:19:31.148Z,15.87
2019-04-06T23:23:36.053Z,16.43
2019-04-06T23:27:40.977Z,14.37
2019-04-06T23:31:46.668Z,14.53
2019-04-06T23:35:51.790Z,14.90
2019-04-06T23:39:57.171Z,14.13
2019-04-06T23:44:33.019Z,14.63
2019-04-06T23:48:38.128Z,15.60
2019-04-06T23:52:43.406Z,14.53
2019-04-06T23:56:48.460Z,16.17
